Home > Products > Valid Products > TAF

000
FTUS41 KALY 211700
TAFPOU
TAF
KPOU 211734Z 2118/2218 VRB03KT 6SM BR VCSH SCT008 OVC035
     FM220300 02004KT 6SM BR VCSH OVC030
     FM220800 02005KT 5SM BR VCSH OVC015
     FM221000 01005KT 5SM BR VCSH SCT007 OVC015
     FM221500 02008KT 3SM -RA BR SCT007 OVC010=



000
FTUS41 KALY 211700
TAFGFL
TAF
KGFL 211734Z 2118/2218 03005KT P6SM VCSH FEW008 SCT025 OVC035
      TEMPO 2118/2120 3SM -RA BR FEW008 BKN025 OVC040
     FM220000 02005KT 6SM -SHRA BR OVC030
     FM220500 01006KT 4SM BR VCSH OVC020
     FM220900 01004KT 4SM BR VCSH SCT007 OVC015
     FM221500 01007KT 3SM -RA BR SCT007 OVC010=



000
FTUS41 KALY 211700
TAFALB
TAF
KALB 211734Z 2118/2218 VRB04KT 6SM BR VCSH SCT006 OVC035
      TEMPO 2118/2122 3SM BR
     FM220000 01005KT 6SM -SHRA BR SCT020 OVC030
     FM220600 36006KT 5SM BR VCSH OVC020
     FM221000 36004KT 5SM BR VCSH SCT007 OVC015
     FM221500 35008KT 3SM -RA BR SCT007 OVC010=



000
FTUS41 KALY 211500 AAB
TAFALB
TAF AMD
KALB 211523Z 2115/2212 VRB02KT 6SM -SHRA FEW004 OVC050
      TEMPO 2115/2117 2SM RA BR BKN004 OVC040
     FM211700 VRB04KT 6SM -SHRA BR SCT030 OVC040
     FM220000 01005KT 6SM -SHRA BR SCT020 OVC030
     FM220600 36006KT 5SM BR VCSH OVC020=



000
FTUS41 KALY 211500 AAB
TAFALB
TAF AMD
KALB 211523Z 2115/2212 VRB02KT 6SM -SHRA FEW004 OVC050
      TEMPO 2115/2117 2SM RA BR BKN004 OVC040
     FM211700 VRB04KT 6SM -SHRA BR SCT030 OVC040
     FM220000 01005KT 6SM -SHRA BR SCT020 OVC030
     FM220600 36006KT 5SM BR VCSH OVC020=



000
FTUS41 KALY 211300 AAA
TAFPOU
TAF AMD
KPOU 211316Z 2113/2212 00000KT 6SM -SHRA OVC060
      TEMPO 2113/2115 2SM RA BR SCT015 OVC035
     FM211500 VRB03KT 6SM -SHRA BR SCT035 OVC050
     FM220300 02004KT 6SM BR VCSH OVC030
     FM220800 02005KT 5SM BR VCSH OVC015=



000
FTUS41 KALY 211300 AAA
TAFALB
TAF AMD
KALB 211310Z 2113/2212 VRB02KT 6SM -SHRA OVC050
      TEMPO 2114/2116 2SM RA BR SCT015 OVC030
     FM211600 VRB04KT 6SM -SHRA BR SCT030 OVC040
     FM220000 01005KT 6SM -SHRA BR SCT020 OVC030
     FM220600 36006KT 5SM BR VCSH OVC020=



000
FTUS41 KALY 211100
TAFALB
TAF
KALB 211135Z 2112/2212 VRB02KT P6SM -SHRA OVC050
     FM211400 VRB04KT 6SM -SHRA BR SCT030 OVC040
     FM220000 01005KT 6SM -SHRA BR SCT020 OVC030
     FM220600 36006KT 5SM BR VCSH OVC020=



000
FTUS41 KALY 211100
TAFGFL
TAF
KGFL 211135Z 2112/2212 00000KT P6SM -SHRA SCT040 OVC060
     FM211500 03005KT 6SM -SHRA BR SCT030 OVC040
     FM220000 02005KT 6SM -SHRA BR OVC030
     FM220500 01006KT 4SM BR VCSH OVC020=



000
FTUS41 KALY 211100
TAFPOU
TAF
KPOU 211135Z 2112/2212 00000KT P6SM -SHRA OVC060
     FM211500 VRB03KT 6SM -SHRA BR SCT035 OVC050
     FM220300 02004KT 6SM BR VCSH OVC030
     FM220800 02005KT 5SM BR VCSH OVC015=



000
FTUS41 KALY 211100
TAFGFL
TAF
KGFL 211135Z 2112/2212 00000KT P6SM -SHRA SCT040 OVC060
     FM211500 03005KT 6SM -SHRA BR SCT030 OVC040
     FM220000 02005KT 6SM -SHRA BR OVC030
     FM220500 01006KT 4SM BR VCSH OVC020=



000
FTUS41 KALY 211100
TAFALB
TAF
KALB 211135Z 2112/2212 VRB02KT P6SM -SHRA OVC050
     FM211400 VRB04KT 6SM -SHRA BR SCT030 OVC040
     FM220000 01005KT 6SM -SHRA BR SCT020 OVC030
     FM220600 36006KT 5SM BR VCSH OVC020=



000
FTUS41 KALY 211100
TAFPOU
TAF
KPOU 211135Z 2112/2212 00000KT P6SM -SHRA OVC060
     FM211500 VRB03KT 6SM -SHRA BR SCT035 OVC050
     FM220300 02004KT 6SM BR VCSH OVC030
     FM220800 02005KT 5SM BR VCSH OVC015=



000
FTUS41 KALY 210500
TAFPOU
TAF
KPOU 210536Z 2106/2206 00000KT P6SM VCSH OVC100
     FM211200 VRB02KT P6SM -SHRA SCT035 OVC050
     FM220000 02003KT 6SM -SHRA BR SCT025 OVC035=



000
FTUS41 KALY 210500
TAFGFL
TAF
KGFL 210536Z 2106/2206 00000KT P6SM VCSH SCT060 OVC080
     FM210800 00000KT P6SM -SHRA SCT040 OVC060
     FM211300 VRB03KT 6SM -SHRA BR OVC040
     FM211700 04005KT 5SM -SHRA BR OVC035
     FM220000 02005KT 4SM -SHRA BR OVC025=



000
FTUS41 KALY 210500
TAFALB
TAF
KALB 210536Z 2106/2206 17005KT P6SM VCSH OVC090
     FM210800 15004KT P6SM -SHRA SCT050 OVC070
     FM211300 VRB04KT 6SM -SHRA BR SCT025 OVC040
     FM220000 36005KT 5SM -SHRA BR SCT015 OVC025=



000
FTUS41 KALY 202300
TAFGFL
TAF
KGFL 202327Z 2100/2124 19009KT P6SM SCT080 OVC110
     FM211200 VRB03KT P6SM VCSH SCT025 OVC050
     FM211800 VRB03KT 6SM -SHRA OVC035=



000
FTUS41 KALY 202300
TAFPOU
TAF
KPOU 202327Z 2100/2124 00000KT P6SM OVC150
     FM211200 VRB03KT P6SM VCSH SCT025 OVC060
     FM211800 VRB03KT 6SM -SHRA OVC035=



000
FTUS41 KALY 202300
TAFALB
TAF
KALB 202327Z 2100/2124 18005KT P6SM BKN090 BKN140 OVC200
     FM211200 VRB03KT P6SM VCSH SCT015 OVC050
     FM211800 VRB03KT 6SM -SHRA OVC035=



000
FTUS41 KALY 201700
TAFPOU
TAF
KPOU 201737Z 2018/2118 22006KT P6SM BKN130
     FM202300 00000KT P6SM OVC100
     FM211200 VRB05KT P6SM VCSH SCT025 OVC060=



000
FTUS41 KALY 201700
TAFALB
TAF
KALB 201737Z 2018/2118 18008KT P6SM BKN120
     FM202300 17004KT P6SM SCT060 OVC100
     FM211200 VRB05KT P6SM VCSH SCT015 OVC050=



000
FTUS41 KALY 201700
TAFGFL
TAF
KGFL 201737Z 2018/2118 19006KT P6SM BKN120
     FM202300 00000KT P6SM SCT060 OVC100
     FM211200 VRB05KT P6SM VCSH SCT025 OVC050=



000
FTUS41 KALY 201100
TAFGFL
TAF
KGFL 201133Z 2012/2112 VRB02KT P6SM BKN120
     FM201500 19006KT P6SM BKN120
     FM202300 00000KT P6SM SCT060 OVC100
     FM210600 00000KT P6SM VCSH OVC050=



000
FTUS41 KALY 201100
TAFALB
TAF
KALB 201133Z 2012/2112 17004KT P6SM BKN120
     FM201500 18008KT P6SM BKN120
     FM202300 17004KT P6SM SCT060 OVC100
     FM210700 15003KT P6SM VCSH OVC050=



000
FTUS41 KALY 201100
TAFPOU
TAF
KPOU 201133Z 2012/2112 00000KT P6SM BKN130
     FM201500 22006KT P6SM BKN130
     FM202300 00000KT P6SM OVC100
     FM210900 00000KT P6SM VCSH OVC060=



000
FTUS41 KALY 200500 CCA
TAFPOU
TAF COR
KPOU 200559Z 2006/2106 00000KT P6SM SCT150 BKN250
     FM201500 21005KT P6SM BKN150
     FM202300 00000KT P6SM BKN100 OVC150=



000
FTUS41 KALY 200500 CCA
TAFGFL
TAF COR
KGFL 200558Z 2006/2106 00000KT P6SM SCT150 BKN250
     FM201400 19005KT P6SM BKN120 BKN200
     FM202300 00000KT P6SM OVC100=



000
FTUS41 KALY 200500 CCA
TAFALB
TAF COR
KALB 200558Z 2006/2106 VRB02KT P6SM SCT045 SCT150 BKN250
     FM201400 18005KT P6SM BKN120 BKN200
     FM201600 18008KT P6SM BKN120
     FM202300 17004KT P6SM OVC100=



000
FTUS41 KALY 200500
TAFGFL
TAF
KGFL 200538Z 2006/2106 00000KT P6SM SCT150 BKN250
     FM201400 19005KT P6SM BKN120 BKN200
     FM202300 00000KT P6SM OVC100
      AMD NOT SKED=



000
FTUS41 KALY 200500
TAFPOU
TAF
KPOU 200538Z 2006/2106 00000KT P6SM SCT150 BKN250
     FM201500 21005KT P6SM BKN150
     FM202300 00000KT P6SM BKN100 OVC150
      AMD NOT SKED=



000
FTUS41 KALY 200500
TAFALB
TAF
KALB 200538Z 2006/2106 VRB02KT P6SM SCT045 SCT150 BKN250
     FM201400 18005KT P6SM BKN120 BKN200
     FM201600 18008KT P6SM BKN120
     FM202300 17004KT P6SM OVC100
      AMD NOT SKED=



000
FTUS41 KALY 192300
TAFGFL
TAF
KGFL 192320Z 2000/2024 32006KT P6SM BKN045
      TEMPO 2000/2002 32012G20KT SCT045
     FM200600 00000KT P6SM SCT250
     FM201400 19005KT P6SM BKN100=



000
FTUS41 KALY 192300
TAFALB
TAF
KALB 192320Z 2000/2024 30010KT P6SM BKN050
      TEMPO 2000/2004 30010G20KT SCT050
     FM200600 00000KT P6SM SCT250
     FM201300 19005KT P6SM SCT250
     FM201600 19010KT P6SM BKN100=



000
FTUS41 KALY 192300
TAFGFL
TAF
KGFL 192320Z 2000/2024 32006KT P6SM BKN045
      TEMPO 2000/2002 32012G20KT SCT045
     FM200600 00000KT P6SM SCT250
     FM201400 19005KT P6SM BKN100=



000
FTUS41 KALY 192300
TAFPOU
TAF
KPOU 192320Z 2000/2024 34006KT P6SM SCT150
     FM200400 00000KT P6SM SCT250
     FM201400 22005KT P6SM SCT200
     FM202200 19008KT P6SM BKN100=



000
FTUS41 KALY 192300
TAFALB
TAF
KALB 192320Z 2000/2024 30010KT P6SM BKN050
      TEMPO 2000/2004 30010G20KT SCT050
     FM200600 00000KT P6SM SCT250
     FM201300 19005KT P6SM SCT250
     FM201600 19010KT P6SM BKN100=



000
FTUS41 KALY 192300
TAFPOU
TAF
KPOU 192320Z 2000/2024 34006KT P6SM SCT150
     FM200400 00000KT P6SM SCT250
     FM201400 22005KT P6SM SCT200
     FM202200 19008KT P6SM BKN100=



000
FTUS41 KALY 192000 AAA
TAFPOU
TAF AMD
KPOU 192057Z 1921/2018 34012G20KT P6SM FEW030
     FM192300 31006KT P6SM SCT250
     FM200400 00000KT P6SM BKN250
     FM201100 22005KT P6SM BKN150 OVC250=



000
FTUS41 KALY 191700
TAFALB
TAF
KALB 191728Z 1918/2018 30015G25KT P6SM SCT035
     FM192300 30007KT P6SM FEW030 SCT250
     FM200400 VRB03KT P6SM BKN250
     FM201100 18005KT P6SM OVC150=



000
FTUS41 KALY 191700
TAFGFL
TAF
KGFL 191728Z 1918/2018 32012G20KT P6SM SCT040
     FM192300 31006KT P6SM FEW030 SCT250
     FM200400 00000KT P6SM BKN250
     FM201100 19005KT P6SM OVC100=



000
FTUS41 KALY 191700
TAFPOU
TAF
KPOU 191728Z 1918/2018 31012G20KT P6SM FEW030
     FM192300 31006KT P6SM SCT250
     FM200400 00000KT P6SM BKN250
     FM201100 22005KT P6SM BKN150 OVC250=



000
FTUS41 KALY 191300 AAA
TAFPOU
TAF AMD
KPOU 191359Z 1914/2012 31009G18KT P6SM OVC090
     FM191600 32015G25KT P6SM BKN040
     FM192300 31010KT P6SM SCT050
     FM200100 31006KT P6SM SCT250
     FM200300 VRB03KT P6SM BKN250=



000
FTUS41 KALY 191100
TAFPOU
TAF
KPOU 191124Z 1912/2012 34008KT P6SM BKN050
     FM191400 33012G20KT P6SM BKN040
     FM191600 32015G25KT P6SM BKN040
     FM192300 31010KT P6SM SCT050
     FM200100 31006KT P6SM SCT250
     FM200300 VRB03KT P6SM BKN250=



000
FTUS41 KALY 191100
TAFALB
TAF
KALB 191124Z 1912/2012 30012G18KT P6SM BKN040 BKN080
     FM191400 32017G27KT P6SM BKN040
     FM192200 31012G20KT P6SM SCT050
     FM200100 31010KT P6SM SCT250
     FM200400 30007KT P6SM BKN250
     FM200800 VRB03KT P6SM BKN250=



000
FTUS41 KALY 191100
TAFGFL
TAF
KGFL 191124Z 1912/2012 32010KT P6SM BKN040
     FM191400 32010G18KT P6SM BKN040
     FM191600 32012G22KT P6SM BKN040
     FM192300 31008KT P6SM SCT050 SCT250
     FM200300 32005KT P6SM BKN250
     FM200600 00000KT P6SM BKN250=



000
FTUS41 KALY 190900 AAA
TAFPOU
TAF AMD
KPOU 190903Z 1909/2006 34008KT P6SM BKN040
     FM191300 33012G20KT P6SM BKN040
     FM191600 32014G24KT P6SM BKN040
     FM192300 31010KT P6SM SCT050
     FM200100 31006KT P6SM SCT250
     FM200300 VRB03KT P6SM BKN250=



000
FTUS41 KALY 190500 RRA
TAFPOU
TAF
KPOU 190548Z 1906/2006 29008KT P6SM BKN050
     FM191000 31010KT P6SM BKN040
     FM191300 32012G20KT P6SM BKN040
     FM191600 32014G24KT P6SM BKN040
     FM192300 31010KT P6SM SCT050
     FM200100 31006KT P6SM SCT250
     FM200300 VRB03KT P6SM BKN250=



000
FTUS41 KALY 190500 RRA
TAFALB
TAF
KALB 190548Z 1906/2006 30010KT P6SM BKN050 BKN100
     FM191000 31012G18KT P6SM BKN040
     FM191300 32015G25KT P6SM BKN040
     FM192200 31012G20KT P6SM SCT050
     FM200100 31010KT P6SM SCT250
     FM200400 30007KT P6SM BKN250=



000
FTUS41 KALY 190500 RRA
TAFGFL
TAF
KGFL 190548Z 1906/2006 31010KT P6SM BKN050 BKN100
     FM190900 31010KT P6SM BKN040
     FM191300 32010G18KT P6SM BKN040
     FM191500 32012G22KT P6SM BKN040
     FM192300 31008KT P6SM SCT050 SCT250
     FM200300 32005KT P6SM BKN250=



000
FTUS41 KALY 190100 AAA
TAFALB
TAF AMD
KALB 190151Z 1902/1924 29010KT P6SM SCT030 OVC060
      TEMPO 1902/1906 29010G20KT BKN030 OVC060
     FM190600 32010KT P6SM BKN035
     FM191300 32015G25KT P6SM BKN040=



000
FTUS41 KALY 182300
TAFGFL
TAF
KGFL 182331Z 1900/1924 27008KT P6SM BKN040
     FM191400 32010G20KT P6SM BKN035
     FM192100 32008KT P6SM SCT040 BKN250=



000
FTUS41 KALY 182300
TAFPOU
TAF
KPOU 182331Z 1900/1924 29008KT P6SM BKN050
     FM191400 32010G20KT P6SM FEW045 SCT250=



000
FTUS41 KALY 182300
TAFALB
TAF
KALB 182331Z 1900/1924 29012KT P6SM OVC030
      TEMPO 1900/1904 24008KT BKN035
     FM190600 30010KT P6SM BKN035
     FM191300 30015G25KT P6SM BKN040=



000
FTUS41 KALY 181900 AAA
TAFALB
TAF AMD
KALB 181955Z 1820/1918 30012G17KT P6SM VCSH FEW025 SCT070 BKN100
     FM190000 31012G20KT P6SM SCT100
     FM191200 31015G25KT P6SM SCT045 BKN250=



000
FTUS41 KALY 181900 AAA
TAFALB
TAF AMD
KALB 181955Z 1820/1918 30012G17KT P6SM VCSH FEW025 SCT070 BKN100
     FM190000 31012G20KT P6SM SCT100
     FM191200 31015G25KT P6SM SCT045 BKN250=



000
FTUS41 KALY 181900 AAB
TAFPOU
TAF AMD
KPOU 181905Z 1819/1918 28009KT P6SM SCT070 BKN080
     FM190000 29006KT P6SM FEW035 BKN080
     FM191200 31012G20KT P6SM FEW045 SCT250=



    US Dept of Commerce
    National Oceanic and Atmospheric Administration
    National Weather Service
    1325 East West Highway
    Silver Spring, MD 20910
    Page Author: NWS Internet Services Team
Disclaimer
Information Quality
Credits
Glossary
Privacy Policy
Freedom of Information Act (FOIA)
About Us
Career Opportunities